sensor_id;sensor_type;location;lat;lon;timestamp;P1;P2;P0
80289;PMS7003;69592;44.804;-0.550;2023-08-20T00:02:16;3.00;2.00;2.00
80289;PMS7003;69592;44.804;-0.550;2023-08-20T00:04:46;2.00;2.00;1.50
80289;PMS7003;69592;44.804;-0.550;2023-08-20T00:07:13;2.20;2.20;1.20
80289;PMS7003;69592;44.804;-0.550;2023-08-20T00:09:40;1.60;1.60;1.20
80289;PMS7003;69592;44.804;-0.550;2023-08-20T00:12:06;1.00;1.00;1.00
80289;PMS7003;69592;44.804;-0.550;2023-08-20T00:17:18;3.00;3.00;2.00
80289;PMS7003;69592;44.804;-0.550;2023-08-20T00:19:44;0.20;0.00;0.00
80289;PMS7003;69592;44.804;-0.550;2023-08-20T00:22:10;1.00;1.00;1.00
80289;PMS7003;69592;44.804;-0.550;2023-08-20T00:24:36;2.50;2.50;2.00
80289;PMS7003;69592;44.804;-0.550;2023-08-20T00:27:02;2.20;0.40;0.00
80289;PMS7003;69592;44.804;-0.550;2023-08-20T00:29:27;2.00;2.00;2.00
80289;PMS7003;69592;44.804;-0.550;2023-08-20T00:31:52;1.00;1.00;1.00
80289;PMS7003;69592;44.804;-0.550;2023-08-20T00:34:18;1.00;1.00;1.00
80289;PMS7003;69592;44.804;-0.550;2023-08-20T00:36:43;1.00;1.00;1.00
80289;PMS7003;69592;44.804;-0.550;2023-08-20T00:39:08;1.75;1.75;1.75
80289;PMS7003;69592;44.804;-0.550;2023-08-20T00:41:34;2.00;2.00;1.25
80289;PMS7003;69592;44.804;-0.550;2023-08-20T00:43:59;3.75;2.50;2.00
80289;PMS7003;69592;44.804;-0.550;2023-08-20T00:46:24;2.50;2.25;2.00
80289;PMS7003;69592;44.804;-0.550;2023-08-20T00:48:50;2.00;2.00;1.25
80289;PMS7003;69592;44.804;-0.550;2023-08-20T00:51:16;2.00;0.50;0.00
80289;PMS7003;69592;44.804;-0.550;2023-08-20T00:53:41;2.50;0.75;0.75
80289;PMS7003;69592;44.804;-0.550;2023-08-20T00:56:07;1.25;1.25;0.75
80289;PMS7003;69592;44.804;-0.550;2023-08-20T00:58:32;1.75;1.75;1.25
80289;PMS7003;69592;44.804;-0.550;2023-08-20T01:00:58;0.75;0.75;0.75
80289;PMS7003;69592;44.804;-0.550;2023-08-20T01:03:24;0.75;0.75;0.75
80289;PMS7003;69592;44.804;-0.550;2023-08-20T01:05:50;1.75;1.00;0.75
80289;PMS7003;69592;44.804;-0.550;2023-08-20T01:08:37;0.80;0.80;0.80
80289;PMS7003;69592;44.804;-0.550;2023-08-20T01:11:19;1.40;1.40;0.80
80289;PMS7003;69592;44.804;-0.550;2023-08-20T01:13:49;3.00;1.80;1.00
80289;PMS7003;69592;44.804;-0.550;2023-08-20T01:16:15;2.75;1.25;0.25
80289;PMS7003;69592;44.804;-0.550;2023-08-20T01:18:40;1.75;0.75;0.75
80289;PMS7003;69592;44.804;-0.550;2023-08-20T01:21:11;1.25;1.25;0.75
80289;PMS7003;69592;44.804;-0.550;2023-08-20T01:27:06;1.40;1.40;0.80
80289;PMS7003;69592;44.804;-0.550;2023-08-20T01:29:39;1.20;1.20;0.80
80289;PMS7003;69592;44.804;-0.550;2023-08-20T01:32:05;3.75;2.75;1.75
80289;PMS7003;69592;44.804;-0.550;2023-08-20T01:34:32;0.80;0.80;0.60
80289;PMS7003;69592;44.804;-0.550;2023-08-20T01:36:57;1.00;1.00;1.00
80289;PMS7003;69592;44.804;-0.550;2023-08-20T01:39:22;3.25;2.00;0.75
80289;PMS7003;69592;44.804;-0.550;2023-08-20T01:41:48;2.25;1.75;0.75
80289;PMS7003;69592;44.804;-0.550;2023-08-20T01:44:14;3.25;1.00;1.00
80289;PMS7003;69592;44.804;-0.550;2023-08-20T01:46:39;2.00;2.00;1.00
80289;PMS7003;69592;44.804;-0.550;2023-08-20T01:49:04;0.75;0.75;0.50
80289;PMS7003;69592;44.804;-0.550;2023-08-20T01:51:30;2.75;0.75;0.50
80289;PMS7003;69592;44.804;-0.550;2023-08-20T01:53:55;1.00;0.50;0.25
80289;PMS7003;69592;44.804;-0.550;2023-08-20T01:56:20;1.50;1.50;1.25
80289;PMS7003;69592;44.804;-0.550;2023-08-20T01:58:46;0.75;0.50;0.25
80289;PMS7003;69592;44.804;-0.550;2023-08-20T02:01:11;0.25;0.25;0.00
80289;PMS7003;69592;44.804;-0.550;2023-08-20T02:03:37;1.75;0.50;0.25
80289;PMS7003;69592;44.804;-0.550;2023-08-20T02:06:03;2.20;1.20;0.40
80289;PMS7003;69592;44.804;-0.550;2023-08-20T02:08:28;4.00;0.75;0.75
80289;PMS7003;69592;44.804;-0.550;2023-08-20T02:11:03;1.50;1.50;0.50
80289;PMS7003;69592;44.804;-0.550;2023-08-20T02:13:32;0.50;0.50;0.25
80289;PMS7003;69592;44.804;-0.550;2023-08-20T02:16:02;1.80;0.40;0.00
80289;PMS7003;69592;44.804;-0.550;2023-08-20T02:18:29;0.00;0.00;0.00
80289;PMS7003;69592;44.804;-0.550;2023-08-20T02:20:55;1.00;1.00;0.00
80289;PMS7003;69592;44.804;-0.550;2023-08-20T02:23:20;1.50;1.50;0.50
80289;PMS7003;69592;44.804;-0.550;2023-08-20T02:25:46;1.00;0.50;0.25
80289;PMS7003;69592;44.804;-0.550;2023-08-20T02:28:12;0.20;0.20;0.00
80289;PMS7003;69592;44.804;-0.550;2023-08-20T02:30:39;0.50;0.50;0.25
80289;PMS7003;69592;44.804;-0.550;2023-08-20T02:33:06;0.25;0.25;0.00
80289;PMS7003;69592;44.804;-0.550;2023-08-20T02:35:32;1.40;0.60;0.20
80289;PMS7003;69592;44.804;-0.550;2023-08-20T02:37:57;0.75;0.00;0.00
80289;PMS7003;69592;44.804;-0.550;2023-08-20T02:40:22;2.75;1.25;0.25
80289;PMS7003;69592;44.804;-0.550;2023-08-20T02:42:48;0.50;0.50;0.50
80289;PMS7003;69592;44.804;-0.550;2023-08-20T02:45:13;0.50;0.50;0.50
80289;PMS7003;69592;44.804;-0.550;2023-08-20T02:47:39;1.00;1.00;1.00
80289;PMS7003;69592;44.804;-0.550;2023-08-20T02:50:04;1.00;1.00;0.75
80289;PMS7003;69592;44.804;-0.550;2023-08-20T02:52:30;1.00;1.00;1.00
80289;PMS7003;69592;44.804;-0.550;2023-08-20T02:54:55;1.00;1.00;1.00
80289;PMS7003;69592;44.804;-0.550;2023-08-20T02:57:20;3.00;1.00;1.00
80289;PMS7003;69592;44.804;-0.550;2023-08-20T02:59:46;2.00;1.00;0.00
80289;PMS7003;69592;44.804;-0.550;2023-08-20T03:02:12;1.00;1.00;0.50
80289;PMS7003;69592;44.804;-0.550;2023-08-20T03:04:37;2.00;1.25;0.50
80289;PMS7003;69592;44.804;-0.550;2023-08-20T03:07:02;0.50;0.25;0.00
80289;PMS7003;69592;44.804;-0.550;2023-08-20T03:09:28;1.00;1.00;0.75
80289;PMS7003;69592;44.804;-0.550;2023-08-20T03:11:53;0.00;0.00;0.00
80289;PMS7003;69592;44.804;-0.550;2023-08-20T03:14:18;1.50;1.50;0.75
80289;PMS7003;69592;44.804;-0.550;2023-08-20T03:16:44;1.00;1.00;1.00
80289;PMS7003;69592;44.804;-0.550;2023-08-20T03:19:09;0.00;0.00;0.00
80289;PMS7003;69592;44.804;-0.550;2023-08-20T03:21:35;0.25;0.25;0.00
80289;PMS7003;69592;44.804;-0.550;2023-08-20T03:24:00;1.25;1.25;0.75
80289;PMS7003;69592;44.804;-0.550;2023-08-20T03:26:25;1.00;1.00;0.00
80289;PMS7003;69592;44.804;-0.550;2023-08-20T03:28:51;1.00;1.00;1.00
80289;PMS7003;69592;44.804;-0.550;2023-08-20T03:31:16;2.00;1.00;1.00
80289;PMS7003;69592;44.804;-0.550;2023-08-20T03:33:42;1.00;1.00;0.25
80289;PMS7003;69592;44.804;-0.550;2023-08-20T03:36:07;0.00;0.00;0.00
80289;PMS7003;69592;44.804;-0.550;2023-08-20T03:38:32;1.00;1.00;1.00
80289;PMS7003;69592;44.804;-0.550;2023-08-20T03:40:58;2.00;1.00;0.00
80289;PMS7003;69592;44.804;-0.550;2023-08-20T03:43:23;1.00;1.00;0.00
80289;PMS7003;69592;44.804;-0.550;2023-08-20T03:45:52;0.00;0.00;0.00
80289;PMS7003;69592;44.804;-0.550;2023-08-20T03:48:18;0.75;0.75;0.00
80289;PMS7003;69592;44.804;-0.550;2023-08-20T03:50:43;1.75;0.50;0.50
80289;PMS7003;69592;44.804;-0.550;2023-08-20T03:53:09;1.00;1.00;0.50
80289;PMS7003;69592;44.804;-0.550;2023-08-20T03:55:34;1.00;1.00;0.00
80289;PMS7003;69592;44.804;-0.550;2023-08-20T03:58:00;2.50;1.50;1.00
80289;PMS7003;69592;44.804;-0.550;2023-08-20T04:00:25;0.00;0.00;0.00
80289;PMS7003;69592;44.804;-0.550;2023-08-20T04:02:50;0.25;0.00;0.00
80289;PMS7003;69592;44.804;-0.550;2023-08-20T04:05:16;0.75;0.00;0.00
80289;PMS7003;69592;44.804;-0.550;2023-08-20T04:07:41;1.00;0.00;0.00
80289;PMS7003;69592;44.804;-0.550;2023-08-20T04:10:07;1.00;1.00;1.00
80289;PMS7003;69592;44.804;-0.550;2023-08-20T04:12:33;0.60;0.00;0.00
80289;PMS7003;69592;44.804;-0.550;2023-08-20T04:14:59;1.00;1.00;1.00
80289;PMS7003;69592;44.804;-0.550;2023-08-20T04:17:24;1.50;0.75;0.00
80289;PMS7003;69592;44.804;-0.550;2023-08-20T04:19:49;3.50;0.75;0.50
80289;PMS7003;69592;44.804;-0.550;2023-08-20T04:22:15;0.25;0.25;0.25
80289;PMS7003;69592;44.804;-0.550;2023-08-20T04:24:40;3.00;1.00;0.00
80289;PMS7003;69592;44.804;-0.550;2023-08-20T04:27:05;0.00;0.00;0.00
80289;PMS7003;69592;44.804;-0.550;2023-08-20T04:29:31;1.00;1.00;0.25
80289;PMS7003;69592;44.804;-0.550;2023-08-20T04:31:56;1.00;1.00;0.00
80289;PMS7003;69592;44.804;-0.550;2023-08-20T04:34:21;2.00;0.75;0.00
80289;PMS7003;69592;44.804;-0.550;2023-08-20T04:36:47;1.50;1.00;0.50
80289;PMS7003;69592;44.804;-0.550;2023-08-20T04:39:12;1.75;0.00;0.00
80289;PMS7003;69592;44.804;-0.550;2023-08-20T04:41:38;1.00;1.00;1.00
80289;PMS7003;69592;44.804;-0.550;2023-08-20T04:44:03;1.75;1.00;0.00
80289;PMS7003;69592;44.804;-0.550;2023-08-20T04:46:28;2.75;1.00;1.00
80289;PMS7003;69592;44.804;-0.550;2023-08-20T04:48:54;2.00;0.75;0.25
80289;PMS7003;69592;44.804;-0.550;2023-08-20T04:51:19;0.25;0.25;0.00
80289;PMS7003;69592;44.804;-0.550;2023-08-20T04:53:45;1.75;0.00;0.00
80289;PMS7003;69592;44.804;-0.550;2023-08-20T04:56:12;2.00;1.00;1.00
80289;PMS7003;69592;44.804;-0.550;2023-08-20T04:58:38;1.00;1.00;1.00
80289;PMS7003;69592;44.804;-0.550;2023-08-20T05:01:03;2.00;1.00;1.00
80289;PMS7003;69592;44.804;-0.550;2023-08-20T05:03:30;0.75;0.75;0.00
80289;PMS7003;69592;44.804;-0.550;2023-08-20T05:05:56;1.00;1.00;0.00
80289;PMS7003;69592;44.804;-0.550;2023-08-20T05:08:21;1.00;1.00;0.75
80289;PMS7003;69592;44.804;-0.550;2023-08-20T05:10:49;0.50;0.50;0.00
80289;PMS7003;69592;44.804;-0.550;2023-08-20T05:13:15;2.25;1.00;0.00
80289;PMS7003;69592;44.804;-0.550;2023-08-20T05:15:41;2.00;0.50;0.00
80289;PMS7003;69592;44.804;-0.550;2023-08-20T05:18:12;0.75;0.75;0.75
80289;PMS7003;69592;44.804;-0.550;2023-08-20T05:20:39;2.50;1.00;0.50
80289;PMS7003;69592;44.804;-0.550;2023-08-20T05:23:05;0.75;0.75;0.00
80289;PMS7003;69592;44.804;-0.550;2023-08-20T05:25:30;1.00;1.00;1.00
80289;PMS7003;69592;44.804;-0.550;2023-08-20T05:27:56;0.25;0.25;0.25
80289;PMS7003;69592;44.804;-0.550;2023-08-20T05:30:21;2.00;0.75;0.75
80289;PMS7003;69592;44.804;-0.550;2023-08-20T05:32:47;2.25;0.50;0.50
80289;PMS7003;69592;44.804;-0.550;2023-08-20T05:35:12;0.75;0.75;0.75
80289;PMS7003;69592;44.804;-0.550;2023-08-20T05:37:37;1.25;1.00;0.25
80289;PMS7003;69592;44.804;-0.550;2023-08-20T05:40:03;1.00;1.00;1.00
80289;PMS7003;69592;44.804;-0.550;2023-08-20T05:42:28;1.00;1.00;0.50
80289;PMS7003;69592;44.804;-0.550;2023-08-20T05:44:54;2.25;1.75;1.00
80289;PMS7003;69592;44.804;-0.550;2023-08-20T05:47:19;1.50;1.00;0.00
80289;PMS7003;69592;44.804;-0.550;2023-08-20T05:49:45;1.00;1.00;1.00
80289;PMS7003;69592;44.804;-0.550;2023-08-20T05:52:10;2.00;1.00;0.00
80289;PMS7003;69592;44.804;-0.550;2023-08-20T05:54:35;2.25;1.25;1.00
80289;PMS7003;69592;44.804;-0.550;2023-08-20T05:57:01;0.75;0.75;0.50
80289;PMS7003;69592;44.804;-0.550;2023-08-20T05:59:27;0.00;0.00;0.00
80289;PMS7003;69592;44.804;-0.550;2023-08-20T06:01:53;1.00;1.00;0.50
80289;PMS7003;69592;44.804;-0.550;2023-08-20T06:04:19;1.00;1.00;0.75
80289;PMS7003;69592;44.804;-0.550;2023-08-20T06:06:44;3.00;1.75;1.00
80289;PMS7003;69592;44.804;-0.550;2023-08-20T06:09:10;1.00;1.00;0.75
80289;PMS7003;69592;44.804;-0.550;2023-08-20T06:11:35;1.25;1.00;0.50
80289;PMS7003;69592;44.804;-0.550;2023-08-20T06:14:01;2.00;1.00;1.00
80289;PMS7003;69592;44.804;-0.550;2023-08-20T06:16:27;1.00;1.00;0.50
80289;PMS7003;69592;44.804;-0.550;2023-08-20T06:18:53;3.00;3.00;1.00
80289;PMS7003;69592;44.804;-0.550;2023-08-20T06:21:18;1.50;1.50;1.00
80289;PMS7003;69592;44.804;-0.550;2023-08-20T06:23:43;1.00;1.00;1.00
80289;PMS7003;69592;44.804;-0.550;2023-08-20T06:26:09;1.25;1.00;0.75
80289;PMS7003;69592;44.804;-0.550;2023-08-20T06:28:34;1.50;1.00;1.00
80289;PMS7003;69592;44.804;-0.550;2023-08-20T06:30:59;1.75;1.00;0.75
80289;PMS7003;69592;44.804;-0.550;2023-08-20T06:33:25;2.00;2.00;1.00
80289;PMS7003;69592;44.804;-0.550;2023-08-20T06:35:50;1.75;1.75;0.25
80289;PMS7003;69592;44.804;-0.550;2023-08-20T06:38:16;1.00;1.00;0.75
80289;PMS7003;69592;44.804;-0.550;2023-08-20T06:40:41;0.25;0.25;0.00
80289;PMS7003;69592;44.804;-0.550;2023-08-20T06:43:06;3.25;2.00;1.50
80289;PMS7003;69592;44.804;-0.550;2023-08-20T06:45:32;3.00;2.00;1.00
80289;PMS7003;69592;44.804;-0.550;2023-08-20T06:47:57;1.50;1.50;1.00
80289;PMS7003;69592;44.804;-0.550;2023-08-20T06:50:23;1.00;1.00;0.50
80289;PMS7003;69592;44.804;-0.550;2023-08-20T06:52:48;0.50;0.50;0.50
80289;PMS7003;69592;44.804;-0.550;2023-08-20T06:55:13;1.50;1.00;0.50
80289;PMS7003;69592;44.804;-0.550;2023-08-20T06:57:39;1.00;1.00;0.50
80289;PMS7003;69592;44.804;-0.550;2023-08-20T07:00:04;0.50;0.50;0.50
80289;PMS7003;69592;44.804;-0.550;2023-08-20T07:02:30;1.00;1.00;0.50
80289;PMS7003;69592;44.804;-0.550;2023-08-20T07:04:56;0.00;0.00;0.00
80289;PMS7003;69592;44.804;-0.550;2023-08-20T07:07:21;1.25;1.25;0.50
80289;PMS7003;69592;44.804;-0.550;2023-08-20T07:09:47;2.50;0.50;0.50
80289;PMS7003;69592;44.804;-0.550;2023-08-20T07:12:12;2.00;0.50;0.50
80289;PMS7003;69592;44.804;-0.550;2023-08-20T07:14:38;2.75;2.00;1.50
80289;PMS7003;69592;44.804;-0.550;2023-08-20T07:17:03;1.00;1.00;1.00
80289;PMS7003;69592;44.804;-0.550;2023-08-20T07:19:29;0.75;0.75;0.75
80289;PMS7003;69592;44.804;-0.550;2023-08-20T07:21:54;1.00;1.00;1.00
80289;PMS7003;69592;44.804;-0.550;2023-08-20T07:24:20;0.25;0.25;0.00
80289;PMS7003;69592;44.804;-0.550;2023-08-20T07:26:50;0.80;0.80;0.80
80289;PMS7003;69592;44.804;-0.550;2023-08-20T07:29:16;1.40;1.00;1.00
80289;PMS7003;69592;44.804;-0.550;2023-08-20T07:31:41;0.75;0.75;0.75
80289;PMS7003;69592;44.804;-0.550;2023-08-20T07:34:07;1.00;1.00;1.00
80289;PMS7003;69592;44.804;-0.550;2023-08-20T07:36:32;1.25;1.25;1.00
80289;PMS7003;69592;44.804;-0.550;2023-08-20T07:38:58;3.00;2.00;1.75
80289;PMS7003;69592;44.804;-0.550;2023-08-20T07:41:24;1.20;1.20;1.20
80289;PMS7003;69592;44.804;-0.550;2023-08-20T07:43:50;2.00;1.75;1.00
80289;PMS7003;69592;44.804;-0.550;2023-08-20T07:46:15;2.50;2.00;1.25
80289;PMS7003;69592;44.804;-0.550;2023-08-20T07:48:41;3.75;2.00;2.00
80289;PMS7003;69592;44.804;-0.550;2023-08-20T07:51:07;1.00;1.00;0.50
80289;PMS7003;69592;44.804;-0.550;2023-08-20T07:53:32;4.00;1.75;1.50
80289;PMS7003;69592;44.804;-0.550;2023-08-20T07:55:59;1.40;1.40;1.00
80289;PMS7003;69592;44.804;-0.550;2023-08-20T07:58:25;1.40;1.40;1.00
80289;PMS7003;69592;44.804;-0.550;2023-08-20T08:00:51;2.00;2.00;1.75
80289;PMS7003;69592;44.804;-0.550;2023-08-20T08:03:16;2.00;2.00;1.00
80289;PMS7003;69592;44.804;-0.550;2023-08-20T08:05:45;1.25;1.25;1.00
80289;PMS7003;69592;44.804;-0.550;2023-08-20T08:08:12;2.00;0.00;0.00
80289;PMS7003;69592;44.804;-0.550;2023-08-20T08:10:37;3.00;2.00;2.00
80289;PMS7003;69592;44.804;-0.550;2023-08-20T08:13:03;2.00;2.00;1.00
80289;PMS7003;69592;44.804;-0.550;2023-08-20T08:15:28;2.00;2.00;2.00
80289;PMS7003;69592;44.804;-0.550;2023-08-20T08:17:53;2.00;2.00;2.00
80289;PMS7003;69592;44.804;-0.550;2023-08-20T08:20:19;4.00;3.00;2.00
80289;PMS7003;69592;44.804;-0.550;2023-08-20T08:22:44;3.00;2.00;1.25
80289;PMS7003;69592;44.804;-0.550;2023-08-20T08:25:10;2.00;2.00;2.00
80289;PMS7003;69592;44.804;-0.550;2023-08-20T08:27:35;3.00;3.00;2.50
80289;PMS7003;69592;44.804;-0.550;2023-08-20T08:30:01;4.00;2.25;2.00
80289;PMS7003;69592;44.804;-0.550;2023-08-20T08:32:28;3.20;1.80;1.80
80289;PMS7003;69592;44.804;-0.550;2023-08-20T08:34:53;2.75;2.75;2.00
80289;PMS7003;69592;44.804;-0.550;2023-08-20T08:37:18;3.00;3.00;2.00
80289;PMS7003;69592;44.804;-0.550;2023-08-20T08:39:44;3.50;3.50;2.00
80289;PMS7003;69592;44.804;-0.550;2023-08-20T08:42:09;2.00;2.00;2.00
80289;PMS7003;69592;44.804;-0.550;2023-08-20T08:44:36;3.40;2.80;2.00
80289;PMS7003;69592;44.804;-0.550;2023-08-20T08:47:02;1.50;1.50;1.00
80289;PMS7003;69592;44.804;-0.550;2023-08-20T08:49:30;3.60;2.40;2.00
80289;PMS7003;69592;44.804;-0.550;2023-08-20T08:51:58;1.20;1.20;1.00
80289;PMS7003;69592;44.804;-0.550;2023-08-20T08:54:23;2.75;1.25;1.00
80289;PMS7003;69592;44.804;-0.550;2023-08-20T08:56:49;2.75;2.75;2.00
80289;PMS7003;69592;44.804;-0.550;2023-08-20T08:59:15;2.50;2.50;2.00
80289;PMS7003;69592;44.804;-0.550;2023-08-20T09:01:41;3.50;3.00;2.25
80289;PMS7003;69592;44.804;-0.550;2023-08-20T09:04:06;3.00;3.00;2.00
80289;PMS7003;69592;44.804;-0.550;2023-08-20T09:06:48;2.00;2.00;1.00
80289;PMS7003;69592;44.804;-0.550;2023-08-20T09:09:16;3.00;3.00;2.60
80289;PMS7003;69592;44.804;-0.550;2023-08-20T09:11:42;3.00;3.00;2.00
80289;PMS7003;69592;44.804;-0.550;2023-08-20T09:14:08;5.25;3.50;3.00
80289;PMS7003;69592;44.804;-0.550;2023-08-20T09:16:46;5.00;5.00;4.00
80289;PMS7003;69592;44.804;-0.550;2023-08-20T09:19:12;4.00;4.00;3.00
80289;PMS7003;69592;44.804;-0.550;2023-08-20T09:21:37;2.25;2.00;2.00
80289;PMS7003;69592;44.804;-0.550;2023-08-20T09:24:03;3.75;3.75;2.75
80289;PMS7003;69592;44.804;-0.550;2023-08-20T09:26:28;4.00;4.00;3.00
80289;PMS7003;69592;44.804;-0.550;2023-08-20T09:28:54;2.50;2.25;2.00
80289;PMS7003;69592;44.804;-0.550;2023-08-20T09:31:21;1.80;1.80;1.80
80289;PMS7003;69592;44.804;-0.550;2023-08-20T09:34:02;4.00;4.00;3.00
80289;PMS7003;69592;44.804;-0.550;2023-08-20T09:36:31;6.00;3.25;2.50
80289;PMS7003;69592;44.804;-0.550;2023-08-20T09:38:58;3.20;3.20;2.40
80289;PMS7003;69592;44.804;-0.550;2023-08-20T09:41:23;5.00;4.00;3.50
80289;PMS7003;69592;44.804;-0.550;2023-08-20T09:43:51;3.40;3.40;2.60
80289;PMS7003;69592;44.804;-0.550;2023-08-20T09:46:21;6.80;2.80;2.60
80289;PMS7003;69592;44.804;-0.550;2023-08-20T09:48:50;2.60;2.60;2.40
80289;PMS7003;69592;44.804;-0.550;2023-08-20T09:51:17;2.00;2.00;2.00
80289;PMS7003;69592;44.804;-0.550;2023-08-20T09:54:05;3.60;3.00;2.20
80289;PMS7003;69592;44.804;-0.550;2023-08-20T09:56:40;4.80;3.80;2.80
80289;PMS7003;69592;44.804;-0.550;2023-08-20T09:59:08;3.60;2.80;2.80
80289;PMS7003;69592;44.804;-0.550;2023-08-20T10:01:35;7.20;4.40;3.80
80289;PMS7003;69592;44.804;-0.550;2023-08-20T10:04:02;4.80;4.20;4.00
80289;PMS7003;69592;44.804;-0.550;2023-08-20T10:06:28;6.00;4.00;3.80
80289;PMS7003;69592;44.804;-0.550;2023-08-20T10:08:55;5.20;4.60;3.00
80289;PMS7003;69592;44.804;-0.550;2023-08-20T10:11:21;3.20;3.20;3.00
80289;PMS7003;69592;44.804;-0.550;2023-08-20T10:13:46;5.50;4.25;3.75
80289;PMS7003;69592;44.804;-0.550;2023-08-20T10:16:12;3.00;3.00;3.00
80289;PMS7003;69592;44.804;-0.550;2023-08-20T10:18:38;3.60;3.60;3.40
80289;PMS7003;69592;44.804;-0.550;2023-08-20T10:21:04;4.20;4.20;3.20
80289;PMS7003;69592;44.804;-0.550;2023-08-20T10:23:32;5.80;5.80;3.80
80289;PMS7003;69592;44.804;-0.550;2023-08-20T10:26:10;5.50;5.50;4.25
80289;PMS7003;69592;44.804;-0.550;2023-08-20T10:28:36;2.80;2.80;2.00
80289;PMS7003;69592;44.804;-0.550;2023-08-20T10:31:06;4.80;4.80;3.80
80289;PMS7003;69592;44.804;-0.550;2023-08-20T10:33:36;7.40;5.40;4.00
80289;PMS7003;69592;44.804;-0.550;2023-08-20T10:36:07;4.00;4.00;3.00
80289;PMS7003;69592;44.804;-0.550;2023-08-20T10:38:37;4.80;4.80;3.60
80289;PMS7003;69592;44.804;-0.550;2023-08-20T10:41:05;4.80;4.20;3.80
80289;PMS7003;69592;44.804;-0.550;2023-08-20T10:43:34;4.20;4.20;3.80
80289;PMS7003;69592;44.804;-0.550;2023-08-20T10:46:07;6.00;6.00;4.40
80289;PMS7003;69592;44.804;-0.550;2023-08-20T10:48:45;3.20;3.20;2.80
80289;PMS7003;69592;44.804;-0.550;2023-08-20T10:56:40;4.80;4.80;4.00
80289;PMS7003;69592;44.804;-0.550;2023-08-20T10:59:32;4.20;4.20;3.20
80289;PMS7003;69592;44.804;-0.550;2023-08-20T11:01:59;4.60;4.60;3.00
80289;PMS7003;69592;44.804;-0.550;2023-08-20T11:04:29;6.75;3.25;3.00
80289;PMS7003;69592;44.804;-0.550;2023-08-20T11:06:57;6.40;6.40;4.20
80289;PMS7003;69592;44.804;-0.550;2023-08-20T11:09:24;5.00;5.00;4.00
80289;PMS7003;69592;44.804;-0.550;2023-08-20T11:11:51;3.00;3.00;2.20
80289;PMS7003;69592;44.804;-0.550;2023-08-20T11:14:17;6.00;6.00;4.50
80289;PMS7003;69592;44.804;-0.550;2023-08-20T11:16:44;3.00;3.00;2.40
80289;PMS7003;69592;44.804;-0.550;2023-08-20T11:19:11;4.40;4.40;3.60
80289;PMS7003;69592;44.804;-0.550;2023-08-20T11:21:37;4.20;4.20;4.00
80289;PMS7003;69592;44.804;-0.550;2023-08-20T11:24:04;5.00;5.00;4.00
80289;PMS7003;69592;44.804;-0.550;2023-08-20T11:26:31;5.00;5.00;4.00
80289;PMS7003;69592;44.804;-0.550;2023-08-20T11:28:57;8.00;5.75;4.50
80289;PMS7003;69592;44.804;-0.550;2023-08-20T11:31:22;5.00;5.00;3.00
80289;PMS7003;69592;44.804;-0.550;2023-08-20T11:33:49;3.50;3.00;2.00
80289;PMS7003;69592;44.804;-0.550;2023-08-20T11:36:15;5.80;5.80;4.80
80289;PMS7003;69592;44.804;-0.550;2023-08-20T11:38:49;4.20;4.00;3.80
80289;PMS7003;69592;44.804;-0.550;2023-08-20T11:41:16;6.00;5.60;4.20
80289;PMS7003;69592;44.804;-0.550;2023-08-20T11:43:41;6.25;6.25;4.75
80289;PMS7003;69592;44.804;-0.550;2023-08-20T11:46:12;5.75;5.00;4.00
80289;PMS7003;69592;44.804;-0.550;2023-08-20T11:51:26;4.60;4.60;4.00
80289;PMS7003;69592;44.804;-0.550;2023-08-20T11:53:51;6.00;6.00;5.00
80289;PMS7003;69592;44.804;-0.550;2023-08-20T11:56:17;6.50;5.50;4.25
80289;PMS7003;69592;44.804;-0.550;2023-08-20T11:58:42;4.75;4.75;3.50
80289;PMS7003;69592;44.804;-0.550;2023-08-20T12:01:07;6.75;5.25;4.25
80289;PMS7003;69592;44.804;-0.550;2023-08-20T12:03:34;6.00;5.00;4.00
80289;PMS7003;69592;44.804;-0.550;2023-08-20T12:05:59;6.00;4.00;3.00
80289;PMS7003;69592;44.804;-0.550;2023-08-20T12:08:25;5.00;5.00;4.20
80289;PMS7003;69592;44.804;-0.550;2023-08-20T12:10:50;8.00;6.50;5.00
80289;PMS7003;69592;44.804;-0.550;2023-08-20T12:13:16;4.25;4.25;3.50
80289;PMS7003;69592;44.804;-0.550;2023-08-20T12:15:41;7.00;6.75;4.00
80289;PMS7003;69592;44.804;-0.550;2023-08-20T12:18:07;5.25;5.00;4.00
80289;PMS7003;69592;44.804;-0.550;2023-08-20T12:20:34;5.60;4.60;4.00
80289;PMS7003;69592;44.804;-0.550;2023-08-20T12:23:02;6.00;6.00;5.00
80289;PMS7003;69592;44.804;-0.550;2023-08-20T12:25:33;8.20;7.00;5.80
80289;PMS7003;69592;44.804;-0.550;2023-08-20T12:28:00;5.60;4.80;4.00
80289;PMS7003;69592;44.804;-0.550;2023-08-20T12:30:26;4.60;4.60;3.80
80289;PMS7003;69592;44.804;-0.550;2023-08-20T12:32:52;5.00;5.00;4.00
80289;PMS7003;69592;44.804;-0.550;2023-08-20T12:35:17;5.00;5.00;4.00
80289;PMS7003;69592;44.804;-0.550;2023-08-20T12:37:43;3.50;3.50;2.75
80289;PMS7003;69592;44.804;-0.550;2023-08-20T12:40:08;7.00;5.00;4.00
80289;PMS7003;69592;44.804;-0.550;2023-08-20T12:42:36;3.80;3.80;3.20
80289;PMS7003;69592;44.804;-0.550;2023-08-20T12:45:03;3.00;3.00;3.00
80289;PMS7003;69592;44.804;-0.550;2023-08-20T12:47:33;7.40;5.40;4.00
80289;PMS7003;69592;44.804;-0.550;2023-08-20T12:49:59;4.80;4.60;3.80
80289;PMS7003;69592;44.804;-0.550;2023-08-20T12:52:24;5.50;5.50;4.00
80289;PMS7003;69592;44.804;-0.550;2023-08-20T12:54:49;6.00;5.00;4.00
80289;PMS7003;69592;44.804;-0.550;2023-08-20T12:57:15;4.25;4.25;4.00
80289;PMS7003;69592;44.804;-0.550;2023-08-20T12:59:40;6.25;5.25;5.00
80289;PMS7003;69592;44.804;-0.550;2023-08-20T13:02:06;4.00;3.00;2.00
80289;PMS7003;69592;44.804;-0.550;2023-08-20T13:04:32;5.00;5.00;4.00
80289;PMS7003;69592;44.804;-0.550;2023-08-20T13:06:58;3.00;3.00;2.00
80289;PMS7003;69592;44.804;-0.550;2023-08-20T13:09:23;3.25;3.25;2.50
80289;PMS7003;69592;44.804;-0.550;2023-08-20T13:11:49;3.75;3.75;3.00
80289;PMS7003;69592;44.804;-0.550;2023-08-20T13:14:18;5.60;5.00;3.80
80289;PMS7003;69592;44.804;-0.550;2023-08-20T13:16:44;5.25;5.25;4.00
80289;PMS7003;69592;44.804;-0.550;2023-08-20T13:19:10;5.75;5.75;4.50
80289;PMS7003;69592;44.804;-0.550;2023-08-20T13:21:35;4.25;4.25;3.75
80289;PMS7003;69592;44.804;-0.550;2023-08-20T13:24:00;5.75;5.75;4.25
80289;PMS7003;69592;44.804;-0.550;2023-08-20T13:26:26;6.00;5.00;4.25
80289;PMS7003;69592;44.804;-0.550;2023-08-20T13:28:51;4.25;4.25;3.50
80289;PMS7003;69592;44.804;-0.550;2023-08-20T13:31:17;5.00;5.00;4.00
80289;PMS7003;69592;44.804;-0.550;2023-08-20T13:33:42;5.50;5.50;4.25
80289;PMS7003;69592;44.804;-0.550;2023-08-20T13:36:07;5.50;5.50;4.25
80289;PMS7003;69592;44.804;-0.550;2023-08-20T13:38:33;4.75;4.75;4.00
80289;PMS7003;69592;44.804;-0.550;2023-08-20T13:40:59;4.40;4.00;4.00
80289;PMS7003;69592;44.804;-0.550;2023-08-20T13:43:24;4.50;4.00;2.75
80289;PMS7003;69592;44.804;-0.550;2023-08-20T13:45:53;5.00;4.00;3.50
80289;PMS7003;69592;44.804;-0.550;2023-08-20T13:48:18;6.00;6.00;5.20
80289;PMS7003;69592;44.804;-0.550;2023-08-20T13:50:44;4.25;4.00;4.00
80289;PMS7003;69592;44.804;-0.550;2023-08-20T13:53:09;7.50;6.75;4.00
80289;PMS7003;69592;44.804;-0.550;2023-08-20T13:55:35;5.80;5.80;4.80
80289;PMS7003;69592;44.804;-0.550;2023-08-20T13:58:00;6.00;4.75;4.00
80289;PMS7003;69592;44.804;-0.550;2023-08-20T14:00:26;6.50;5.25;4.25
80289;PMS7003;69592;44.804;-0.550;2023-08-20T14:02:51;6.75;5.25;4.00
80289;PMS7003;69592;44.804;-0.550;2023-08-20T14:05:17;4.00;4.00;3.75
80289;PMS7003;69592;44.804;-0.550;2023-08-20T14:07:43;3.00;3.00;3.00
80289;PMS7003;69592;44.804;-0.550;2023-08-20T14:10:08;5.50;4.25;2.75
80289;PMS7003;69592;44.804;-0.550;2023-08-20T14:12:34;7.00;5.00;4.00
80289;PMS7003;69592;44.804;-0.550;2023-08-20T14:15:00;5.00;5.00;4.00
80289;PMS7003;69592;44.804;-0.550;2023-08-20T14:17:25;6.00;6.00;5.00
80289;PMS7003;69592;44.804;-0.550;2023-08-20T14:19:51;5.25;5.25;4.25